sensor_id;sensor_type;location;lat;lon;timestamp;P1;durP1;ratioP1;P2;durP2;ratioP2
22916;SDS011;11624;53.250;7.456;2023-04-03T00:01:26;8.30;;;1.40;;
22916;SDS011;11624;53.250;7.456;2023-04-03T00:03:54;5.77;;;1.13;;
22916;SDS011;11624;53.250;7.456;2023-04-03T00:06:23;7.37;;;1.87;;
22916;SDS011;11624;53.250;7.456;2023-04-03T00:08:52;10.27;;;1.63;;
22916;SDS011;11624;53.250;7.456;2023-04-03T00:11:20;9.93;;;2.10;;
22916;SDS011;11624;53.250;7.456;2023-04-03T00:13:50;7.27;;;1.27;;
22916;SDS011;11624;53.250;7.456;2023-04-03T00:16:18;6.00;;;1.60;;
22916;SDS011;11624;53.250;7.456;2023-04-03T00:18:46;6.40;;;1.80;;
22916;SDS011;11624;53.250;7.456;2023-04-03T00:21:14;7.10;;;1.43;;
22916;SDS011;11624;53.250;7.456;2023-04-03T00:23:43;6.43;;;1.30;;
22916;SDS011;11624;53.250;7.456;2023-04-03T00:26:11;3.80;;;1.33;;
22916;SDS011;11624;53.250;7.456;2023-04-03T00:28:39;7.90;;;1.70;;
22916;SDS011;11624;53.250;7.456;2023-04-03T00:31:09;7.63;;;1.80;;
22916;SDS011;11624;53.250;7.456;2023-04-03T00:33:37;10.57;;;1.93;;
22916;SDS011;11624;53.250;7.456;2023-04-03T00:36:06;8.23;;;1.57;;
22916;SDS011;11624;53.250;7.456;2023-04-03T00:38:35;10.87;;;1.90;;
22916;SDS011;11624;53.250;7.456;2023-04-03T00:41:04;10.67;;;1.97;;
22916;SDS011;11624;53.250;7.456;2023-04-03T00:43:32;5.83;;;1.70;;
22916;SDS011;11624;53.250;7.456;2023-04-03T00:46:01;8.90;;;1.80;;
22916;SDS011;11624;53.250;7.456;2023-04-03T00:48:31;9.20;;;1.97;;
22916;SDS011;11624;53.250;7.456;2023-04-03T00:51:02;8.87;;;1.87;;
22916;SDS011;11624;53.250;7.456;2023-04-03T00:53:33;6.97;;;1.67;;
22916;SDS011;11624;53.250;7.456;2023-04-03T00:56:06;9.67;;;1.90;;
22916;SDS011;11624;53.250;7.456;2023-04-03T00:58:38;8.07;;;1.90;;
22916;SDS011;11624;53.250;7.456;2023-04-03T01:01:12;7.13;;;1.70;;
22916;SDS011;11624;53.250;7.456;2023-04-03T01:03:45;12.13;;;2.00;;
22916;SDS011;11624;53.250;7.456;2023-04-03T01:06:14;10.27;;;2.00;;
22916;SDS011;11624;53.250;7.456;2023-04-03T01:08:45;7.37;;;1.50;;
22916;SDS011;11624;53.250;7.456;2023-04-03T01:11:16;7.47;;;1.70;;
22916;SDS011;11624;53.250;7.456;2023-04-03T01:13:44;8.60;;;1.73;;
22916;SDS011;11624;53.250;7.456;2023-04-03T01:16:12;7.53;;;1.60;;
22916;SDS011;11624;53.250;7.456;2023-04-03T01:18:41;10.23;;;1.90;;
22916;SDS011;11624;53.250;7.456;2023-04-03T01:24:25;8.33;;;1.83;;
22916;SDS011;11624;53.250;7.456;2023-04-03T01:27:01;13.37;;;2.00;;
22916;SDS011;11624;53.250;7.456;2023-04-03T01:29:32;8.63;;;1.90;;
22916;SDS011;11624;53.250;7.456;2023-04-03T01:32:02;8.10;;;1.97;;
22916;SDS011;11624;53.250;7.456;2023-04-03T01:34:31;12.27;;;2.27;;
22916;SDS011;11624;53.250;7.456;2023-04-03T01:37:00;9.43;;;2.00;;
22916;SDS011;11624;53.250;7.456;2023-04-03T01:39:28;8.77;;;1.93;;
22916;SDS011;11624;53.250;7.456;2023-04-03T01:41:56;5.40;;;1.73;;
22916;SDS011;11624;53.250;7.456;2023-04-03T01:44:30;8.00;;;1.87;;
22916;SDS011;11624;53.250;7.456;2023-04-03T01:46:58;10.20;;;2.13;;
22916;SDS011;11624;53.250;7.456;2023-04-03T01:49:29;12.90;;;2.40;;
22916;SDS011;11624;53.250;7.456;2023-04-03T01:51:57;8.93;;;2.37;;
22916;SDS011;11624;53.250;7.456;2023-04-03T01:54:25;11.93;;;2.23;;
22916;SDS011;11624;53.250;7.456;2023-04-03T01:56:53;9.67;;;2.20;;
22916;SDS011;11624;53.250;7.456;2023-04-03T01:59:22;8.57;;;1.83;;
22916;SDS011;11624;53.250;7.456;2023-04-03T02:01:50;8.10;;;1.97;;
22916;SDS011;11624;53.250;7.456;2023-04-03T02:04:18;8.30;;;2.00;;
22916;SDS011;11624;53.250;7.456;2023-04-03T02:06:48;12.50;;;2.50;;
22916;SDS011;11624;53.250;7.456;2023-04-03T02:09:16;10.47;;;2.10;;
22916;SDS011;11624;53.250;7.456;2023-04-03T02:11:44;8.10;;;2.20;;
22916;SDS011;11624;53.250;7.456;2023-04-03T02:14:12;11.37;;;2.40;;
22916;SDS011;11624;53.250;7.456;2023-04-03T02:16:40;7.93;;;2.37;;
22916;SDS011;11624;53.250;7.456;2023-04-03T02:19:09;10.87;;;2.17;;
22916;SDS011;11624;53.250;7.456;2023-04-03T02:21:37;11.17;;;2.73;;
22916;SDS011;11624;53.250;7.456;2023-04-03T02:24:06;8.00;;;2.10;;
22916;SDS011;11624;53.250;7.456;2023-04-03T02:26:35;7.97;;;2.20;;
22916;SDS011;11624;53.250;7.456;2023-04-03T02:29:03;9.43;;;1.97;;
22916;SDS011;11624;53.250;7.456;2023-04-03T02:31:33;8.93;;;2.40;;
22916;SDS011;11624;53.250;7.456;2023-04-03T02:34:02;8.53;;;2.17;;
22916;SDS011;11624;53.250;7.456;2023-04-03T02:36:30;9.80;;;2.90;;
22916;SDS011;11624;53.250;7.456;2023-04-03T02:39:02;8.73;;;2.10;;
22916;SDS011;11624;53.250;7.456;2023-04-03T02:41:32;11.27;;;2.17;;
22916;SDS011;11624;53.250;7.456;2023-04-03T02:44:05;10.37;;;2.40;;
22916;SDS011;11624;53.250;7.456;2023-04-03T02:46:34;13.13;;;2.30;;
22916;SDS011;11624;53.250;7.456;2023-04-03T02:49:03;9.07;;;2.23;;
22916;SDS011;11624;53.250;7.456;2023-04-03T02:51:32;11.37;;;2.47;;
22916;SDS011;11624;53.250;7.456;2023-04-03T02:54:00;11.63;;;2.30;;
22916;SDS011;11624;53.250;7.456;2023-04-03T02:56:33;11.37;;;2.47;;
22916;SDS011;11624;53.250;7.456;2023-04-03T02:59:01;11.30;;;2.47;;
22916;SDS011;11624;53.250;7.456;2023-04-03T03:01:32;11.80;;;2.40;;
22916;SDS011;11624;53.250;7.456;2023-04-03T03:04:00;9.97;;;2.30;;
22916;SDS011;11624;53.250;7.456;2023-04-03T03:06:28;9.40;;;2.30;;
22916;SDS011;11624;53.250;7.456;2023-04-03T03:08:56;11.30;;;2.13;;
22916;SDS011;11624;53.250;7.456;2023-04-03T03:11:24;9.97;;;2.10;;
22916;SDS011;11624;53.250;7.456;2023-04-03T03:13:54;9.80;;;2.57;;
22916;SDS011;11624;53.250;7.456;2023-04-03T03:16:24;10.87;;;2.20;;
22916;SDS011;11624;53.250;7.456;2023-04-03T03:18:53;12.00;;;2.57;;
22916;SDS011;11624;53.250;7.456;2023-04-03T03:21:23;10.83;;;2.53;;
22916;SDS011;11624;53.250;7.456;2023-04-03T03:23:51;11.50;;;2.50;;
22916;SDS011;11624;53.250;7.456;2023-04-03T03:26:19;12.93;;;2.30;;
22916;SDS011;11624;53.250;7.456;2023-04-03T03:28:48;10.67;;;2.20;;
22916;SDS011;11624;53.250;7.456;2023-04-03T03:31:17;9.00;;;2.27;;
22916;SDS011;11624;53.250;7.456;2023-04-03T03:33:46;12.93;;;2.60;;
22916;SDS011;11624;53.250;7.456;2023-04-03T03:36:14;11.17;;;2.40;;
22916;SDS011;11624;53.250;7.456;2023-04-03T03:38:42;11.13;;;2.30;;
22916;SDS011;11624;53.250;7.456;2023-04-03T03:41:10;12.47;;;2.83;;
22916;SDS011;11624;53.250;7.456;2023-04-03T03:43:40;14.83;;;2.43;;
22916;SDS011;11624;53.250;7.456;2023-04-03T03:46:09;10.50;;;2.53;;
22916;SDS011;11624;53.250;7.456;2023-04-03T03:48:39;12.60;;;2.60;;
22916;SDS011;11624;53.250;7.456;2023-04-03T03:51:07;12.63;;;2.80;;
22916;SDS011;11624;53.250;7.456;2023-04-03T03:53:37;10.03;;;2.30;;
22916;SDS011;11624;53.250;7.456;2023-04-03T03:56:08;8.87;;;2.60;;
22916;SDS011;11624;53.250;7.456;2023-04-03T03:58:38;8.30;;;2.53;;
22916;SDS011;11624;53.250;7.456;2023-04-03T04:01:07;12.47;;;2.53;;
22916;SDS011;11624;53.250;7.456;2023-04-03T04:03:42;9.30;;;2.53;;
22916;SDS011;11624;53.250;7.456;2023-04-03T04:06:15;12.10;;;2.70;;
22916;SDS011;11624;53.250;7.456;2023-04-03T04:08:43;11.60;;;2.60;;
22916;SDS011;11624;53.250;7.456;2023-04-03T04:11:12;14.50;;;2.87;;
22916;SDS011;11624;53.250;7.456;2023-04-03T04:13:43;14.70;;;2.80;;
22916;SDS011;11624;53.250;7.456;2023-04-03T04:16:12;14.83;;;2.73;;
22916;SDS011;11624;53.250;7.456;2023-04-03T04:18:40;11.57;;;2.80;;
22916;SDS011;11624;53.250;7.456;2023-04-03T04:21:10;13.83;;;2.70;;
22916;SDS011;11624;53.250;7.456;2023-04-03T04:23:39;13.60;;;2.93;;
22916;SDS011;11624;53.250;7.456;2023-04-03T04:26:07;13.53;;;2.93;;
22916;SDS011;11624;53.250;7.456;2023-04-03T04:28:37;12.23;;;2.90;;
22916;SDS011;11624;53.250;7.456;2023-04-03T04:31:06;10.73;;;2.70;;
22916;SDS011;11624;53.250;7.456;2023-04-03T04:33:35;10.53;;;2.80;;
22916;SDS011;11624;53.250;7.456;2023-04-03T04:36:06;15.10;;;2.97;;
22916;SDS011;11624;53.250;7.456;2023-04-03T04:38:34;9.20;;;2.60;;
22916;SDS011;11624;53.250;7.456;2023-04-03T04:41:02;15.53;;;2.70;;
22916;SDS011;11624;53.250;7.456;2023-04-03T04:43:31;12.70;;;3.17;;
22916;SDS011;11624;53.250;7.456;2023-04-03T04:46:01;17.77;;;2.83;;
22916;SDS011;11624;53.250;7.456;2023-04-03T04:48:33;16.93;;;3.20;;
22916;SDS011;11624;53.250;7.456;2023-04-03T04:51:04;11.67;;;2.70;;
22916;SDS011;11624;53.250;7.456;2023-04-03T04:53:35;13.53;;;3.60;;
22916;SDS011;11624;53.250;7.456;2023-04-03T04:56:04;12.50;;;3.10;;
22916;SDS011;11624;53.250;7.456;2023-04-03T04:58:35;15.67;;;3.37;;
22916;SDS011;11624;53.250;7.456;2023-04-03T05:01:05;15.40;;;3.10;;
22916;SDS011;11624;53.250;7.456;2023-04-03T05:03:41;11.80;;;3.13;;
22916;SDS011;11624;53.250;7.456;2023-04-03T05:06:11;11.10;;;3.00;;
22916;SDS011;11624;53.250;7.456;2023-04-03T05:08:39;19.97;;;3.90;;
22916;SDS011;11624;53.250;7.456;2023-04-03T05:11:08;16.63;;;3.37;;
22916;SDS011;11624;53.250;7.456;2023-04-03T05:13:37;15.83;;;3.60;;
22916;SDS011;11624;53.250;7.456;2023-04-03T05:16:05;12.70;;;3.57;;
22916;SDS011;11624;53.250;7.456;2023-04-03T05:18:34;14.10;;;3.33;;
22916;SDS011;11624;53.250;7.456;2023-04-03T05:21:06;14.97;;;3.37;;
22916;SDS011;11624;53.250;7.456;2023-04-03T05:23:36;11.90;;;3.60;;
22916;SDS011;11624;53.250;7.456;2023-04-03T05:26:05;13.73;;;3.80;;
22916;SDS011;11624;53.250;7.456;2023-04-03T05:28:34;12.80;;;3.20;;
22916;SDS011;11624;53.250;7.456;2023-04-03T05:31:04;14.60;;;3.70;;
22916;SDS011;11624;53.250;7.456;2023-04-03T05:33:35;14.30;;;3.83;;
22916;SDS011;11624;53.250;7.456;2023-04-03T05:36:06;12.27;;;3.70;;
22916;SDS011;11624;53.250;7.456;2023-04-03T05:38:41;15.57;;;3.77;;
22916;SDS011;11624;53.250;7.456;2023-04-03T05:41:10;15.07;;;3.50;;
22916;SDS011;11624;53.250;7.456;2023-04-03T05:43:39;14.70;;;4.00;;
22916;SDS011;11624;53.250;7.456;2023-04-03T05:46:10;15.43;;;3.97;;
22916;SDS011;11624;53.250;7.456;2023-04-03T05:48:40;14.07;;;3.83;;
22916;SDS011;11624;53.250;7.456;2023-04-03T05:51:14;16.33;;;3.70;;
22916;SDS011;11624;53.250;7.456;2023-04-03T05:53:47;14.90;;;3.93;;
22916;SDS011;11624;53.250;7.456;2023-04-03T05:56:18;15.50;;;3.93;;
22916;SDS011;11624;53.250;7.456;2023-04-03T05:58:47;15.53;;;4.07;;
22916;SDS011;11624;53.250;7.456;2023-04-03T06:01:15;16.10;;;4.30;;
22916;SDS011;11624;53.250;7.456;2023-04-03T06:03:43;14.53;;;3.80;;
22916;SDS011;11624;53.250;7.456;2023-04-03T06:06:12;12.50;;;3.63;;
22916;SDS011;11624;53.250;7.456;2023-04-03T06:08:42;12.43;;;4.10;;
22916;SDS011;11624;53.250;7.456;2023-04-03T06:11:12;18.13;;;4.53;;
22916;SDS011;11624;53.250;7.456;2023-04-03T06:13:41;15.80;;;4.17;;
22916;SDS011;11624;53.250;7.456;2023-04-03T06:16:11;13.23;;;3.47;;
22916;SDS011;11624;53.250;7.456;2023-04-03T06:18:41;14.83;;;3.90;;
22916;SDS011;11624;53.250;7.456;2023-04-03T06:21:10;14.07;;;4.27;;
22916;SDS011;11624;53.250;7.456;2023-04-03T06:23:39;13.03;;;3.90;;
22916;SDS011;11624;53.250;7.456;2023-04-03T06:26:08;17.97;;;3.87;;
22916;SDS011;11624;53.250;7.456;2023-04-03T06:28:38;16.83;;;3.87;;
22916;SDS011;11624;53.250;7.456;2023-04-03T06:31:06;14.33;;;3.87;;
22916;SDS011;11624;53.250;7.456;2023-04-03T06:33:35;13.13;;;3.60;;
22916;SDS011;11624;53.250;7.456;2023-04-03T06:36:04;18.70;;;4.07;;
22916;SDS011;11624;53.250;7.456;2023-04-03T06:38:33;14.90;;;4.10;;
22916;SDS011;11624;53.250;7.456;2023-04-03T06:41:02;14.27;;;3.70;;
22916;SDS011;11624;53.250;7.456;2023-04-03T06:43:30;19.20;;;3.53;;
22916;SDS011;11624;53.250;7.456;2023-04-03T06:46:01;14.80;;;3.27;;
22916;SDS011;11624;53.250;7.456;2023-04-03T06:48:29;12.87;;;3.40;;
22916;SDS011;11624;53.250;7.456;2023-04-03T06:50:58;12.27;;;3.10;;
22916;SDS011;11624;53.250;7.456;2023-04-03T06:53:26;11.70;;;2.97;;
22916;SDS011;11624;53.250;7.456;2023-04-03T06:55:54;15.30;;;3.03;;
22916;SDS011;11624;53.250;7.456;2023-04-03T06:58:22;9.83;;;2.83;;
22916;SDS011;11624;53.250;7.456;2023-04-03T07:00:50;11.43;;;3.20;;
22916;SDS011;11624;53.250;7.456;2023-04-03T07:03:19;8.83;;;3.00;;
22916;SDS011;11624;53.250;7.456;2023-04-03T07:05:48;11.60;;;2.70;;
22916;SDS011;11624;53.250;7.456;2023-04-03T07:08:16;18.00;;;3.53;;
22916;SDS011;11624;53.250;7.456;2023-04-03T07:10:44;12.37;;;3.40;;
22916;SDS011;11624;53.250;7.456;2023-04-03T07:13:12;17.43;;;3.40;;
22916;SDS011;11624;53.250;7.456;2023-04-03T07:15:40;10.07;;;2.27;;
22916;SDS011;11624;53.250;7.456;2023-04-03T07:18:09;13.93;;;2.87;;
22916;SDS011;11624;53.250;7.456;2023-04-03T07:20:39;14.67;;;2.97;;
22916;SDS011;11624;53.250;7.456;2023-04-03T07:23:08;11.40;;;2.77;;
22916;SDS011;11624;53.250;7.456;2023-04-03T07:25:36;16.07;;;2.80;;
22916;SDS011;11624;53.250;7.456;2023-04-03T07:28:09;12.13;;;3.10;;
22916;SDS011;11624;53.250;7.456;2023-04-03T07:30:42;9.97;;;2.40;;
22916;SDS011;11624;53.250;7.456;2023-04-03T07:33:11;10.60;;;2.60;;
22916;SDS011;11624;53.250;7.456;2023-04-03T07:35:42;12.53;;;2.90;;
22916;SDS011;11624;53.250;7.456;2023-04-03T07:38:11;11.07;;;2.27;;
22916;SDS011;11624;53.250;7.456;2023-04-03T07:40:39;8.40;;;2.20;;
22916;SDS011;11624;53.250;7.456;2023-04-03T07:43:07;12.70;;;2.10;;
22916;SDS011;11624;53.250;7.456;2023-04-03T07:45:35;10.63;;;1.90;;
22916;SDS011;11624;53.250;7.456;2023-04-03T07:48:04;7.67;;;2.23;;
22916;SDS011;11624;53.250;7.456;2023-04-03T07:50:32;9.70;;;1.97;;
22916;SDS011;11624;53.250;7.456;2023-04-03T07:53:02;7.10;;;1.87;;
22916;SDS011;11624;53.250;7.456;2023-04-03T07:55:31;8.87;;;2.13;;
22916;SDS011;11624;53.250;7.456;2023-04-03T07:58:00;8.00;;;2.00;;
22916;SDS011;11624;53.250;7.456;2023-04-03T08:00:28;11.17;;;2.20;;
22916;SDS011;11624;53.250;7.456;2023-04-03T08:02:56;6.87;;;1.83;;
22916;SDS011;11624;53.250;7.456;2023-04-03T08:05:24;7.23;;;2.00;;
22916;SDS011;11624;53.250;7.456;2023-04-03T08:07:53;7.87;;;2.20;;
22916;SDS011;11624;53.250;7.456;2023-04-03T08:10:22;8.20;;;1.95;;
22916;SDS011;11624;53.250;7.456;2023-04-03T08:12:50;10.52;;;1.92;;
22916;SDS011;11624;53.250;7.456;2023-04-03T08:15:19;9.10;;;2.10;;
22916;SDS011;11624;53.250;7.456;2023-04-03T08:17:47;9.88;;;2.00;;
22916;SDS011;11624;53.250;7.456;2023-04-03T08:20:15;9.35;;;2.17;;
22916;SDS011;11624;53.250;7.456;2023-04-03T08:22:43;9.88;;;2.58;;
22916;SDS011;11624;53.250;7.456;2023-04-03T08:25:12;10.10;;;2.13;;
22916;SDS011;11624;53.250;7.456;2023-04-03T08:27:42;10.43;;;2.50;;
22916;SDS011;11624;53.250;7.456;2023-04-03T08:30:10;10.32;;;2.00;;
22916;SDS011;11624;53.250;7.456;2023-04-03T08:32:39;7.75;;;2.30;;
22916;SDS011;11624;53.250;7.456;2023-04-03T08:35:09;8.95;;;2.10;;
22916;SDS011;11624;53.250;7.456;2023-04-03T08:37:39;9.90;;;1.95;;
22916;SDS011;11624;53.250;7.456;2023-04-03T08:40:10;7.32;;;2.10;;
22916;SDS011;11624;53.250;7.456;2023-04-03T08:42:46;10.10;;;2.17;;
22916;SDS011;11624;53.250;7.456;2023-04-03T08:45:27;7.80;;;1.95;;
22916;SDS011;11624;53.250;7.456;2023-04-03T08:48:11;7.90;;;1.80;;
22916;SDS011;11624;53.250;7.456;2023-04-03T08:50:42;8.38;;;2.03;;
22916;SDS011;11624;53.250;7.456;2023-04-03T08:53:14;8.57;;;1.75;;
22916;SDS011;11624;53.250;7.456;2023-04-03T08:55:43;4.90;;;1.65;;
22916;SDS011;11624;53.250;7.456;2023-04-03T08:58:16;7.88;;;1.83;;
22916;SDS011;11624;53.250;7.456;2023-04-03T09:00:47;8.45;;;1.95;;
22916;SDS011;11624;53.250;7.456;2023-04-03T09:03:18;6.22;;;1.73;;
22916;SDS011;11624;53.250;7.456;2023-04-03T09:05:49;8.13;;;1.88;;
22916;SDS011;11624;53.250;7.456;2023-04-03T09:08:22;7.18;;;1.80;;
22916;SDS011;11624;53.250;7.456;2023-04-03T09:10:54;8.43;;;1.58;;
22916;SDS011;11624;53.250;7.456;2023-04-03T09:13:32;6.38;;;1.77;;
22916;SDS011;11624;53.250;7.456;2023-04-03T09:16:05;8.75;;;1.58;;
22916;SDS011;11624;53.250;7.456;2023-04-03T09:18:43;6.80;;;1.80;;
22916;SDS011;11624;53.250;7.456;2023-04-03T09:21:16;4.47;;;1.60;;
22916;SDS011;11624;53.250;7.456;2023-04-03T09:23:49;8.15;;;1.50;;
22916;SDS011;11624;53.250;7.456;2023-04-03T09:26:19;6.88;;;1.45;;
22916;SDS011;11624;53.250;7.456;2023-04-03T09:28:54;4.65;;;1.15;;
22916;SDS011;11624;53.250;7.456;2023-04-03T09:31:26;7.15;;;1.48;;
22916;SDS011;11624;53.250;7.456;2023-04-03T09:33:58;2.67;;;0.95;;
22916;SDS011;11624;53.250;7.456;2023-04-03T09:36:42;6.32;;;1.30;;
22916;SDS011;11624;53.250;7.456;2023-04-03T09:39:14;5.72;;;1.45;;
22916;SDS011;11624;53.250;7.456;2023-04-03T09:41:55;5.50;;;1.20;;
22916;SDS011;11624;53.250;7.456;2023-04-03T09:44:28;4.00;;;1.20;;
22916;SDS011;11624;53.250;7.456;2023-04-03T09:46:57;4.90;;;1.30;;
22916;SDS011;11624;53.250;7.456;2023-04-03T09:49:26;5.45;;;1.00;;
22916;SDS011;11624;53.250;7.456;2023-04-03T09:51:55;6.18;;;1.00;;
22916;SDS011;11624;53.250;7.456;2023-04-03T09:54:34;4.35;;;1.00;;
22916;SDS011;11624;53.250;7.456;2023-04-03T09:57:09;8.15;;;1.63;;
22916;SDS011;11624;53.250;7.456;2023-04-03T09:59:43;4.93;;;1.05;;
22916;SDS011;11624;53.250;7.456;2023-04-03T10:05:02;1.92;;;0.70;;
22916;SDS011;11624;53.250;7.456;2023-04-03T10:07:36;4.32;;;1.20;;
22916;SDS011;11624;53.250;7.456;2023-04-03T10:10:16;2.50;;;0.98;;
22916;SDS011;11624;53.250;7.456;2023-04-03T10:12:46;2.30;;;0.93;;
22916;SDS011;11624;53.250;7.456;2023-04-03T10:15:17;4.55;;;1.23;;
22916;SDS011;11624;53.250;7.456;2023-04-03T10:17:51;5.57;;;1.50;;
22916;SDS011;11624;53.250;7.456;2023-04-03T10:20:29;4.28;;;1.35;;
22916;SDS011;11624;53.250;7.456;2023-04-03T10:23:07;2.60;;;1.10;;
22916;SDS011;11624;53.250;7.456;2023-04-03T10:25:48;3.42;;;1.20;;
22916;SDS011;11624;53.250;7.456;2023-04-03T10:28:31;5.40;;;1.10;;
22916;SDS011;11624;53.250;7.456;2023-04-03T10:31:08;4.90;;;1.27;;
22916;SDS011;11624;53.250;7.456;2023-04-03T10:33:46;3.00;;;0.98;;
22916;SDS011;11624;53.250;7.456;2023-04-03T10:36:29;2.67;;;0.93;;
22916;SDS011;11624;53.250;7.456;2023-04-03T10:39:05;5.57;;;1.15;;
22916;SDS011;11624;53.250;7.456;2023-04-03T10:41:45;6.95;;;1.30;;
22916;SDS011;11624;53.250;7.456;2023-04-03T10:44:37;4.20;;;1.10;;
22916;SDS011;11624;53.250;7.456;2023-04-03T10:47:17;4.72;;;1.40;;
22916;SDS011;11624;53.250;7.456;2023-04-03T10:49:51;4.07;;;1.20;;
22916;SDS011;11624;53.250;7.456;2023-04-03T10:52:28;5.63;;;1.80;;
22916;SDS011;11624;53.250;7.456;2023-04-03T10:55:09;3.90;;;1.10;;
22916;SDS011;11624;53.250;7.456;2023-04-03T10:57:50;4.15;;;1.40;;
22916;SDS011;11624;53.250;7.456;2023-04-03T11:00:21;3.63;;;1.20;;
22916;SDS011;11624;53.250;7.456;2023-04-03T11:02:55;3.72;;;1.00;;
22916;SDS011;11624;53.250;7.456;2023-04-03T11:05:28;5.72;;;1.20;;
22916;SDS011;11624;53.250;7.456;2023-04-03T11:08:02;3.47;;;1.38;;
22916;SDS011;11624;53.250;7.456;2023-04-03T11:10:37;4.75;;;1.13;;
22916;SDS011;11624;53.250;7.456;2023-04-03T11:13:11;5.50;;;0.90;;
22916;SDS011;11624;53.250;7.456;2023-04-03T11:15:42;4.13;;;1.30;;
22916;SDS011;11624;53.250;7.456;2023-04-03T11:18:14;3.85;;;1.30;;
22916;SDS011;11624;53.250;7.456;2023-04-03T11:20:48;3.13;;;1.38;;
22916;SDS011;11624;53.250;7.456;2023-04-03T11:23:24;4.38;;;1.00;;
22916;SDS011;11624;53.250;7.456;2023-04-03T11:26:07;4.78;;;1.17;;
22916;SDS011;11624;53.250;7.456;2023-04-03T11:28:38;5.60;;;1.42;;
22916;SDS011;11624;53.250;7.456;2023-04-03T11:31:10;3.80;;;1.20;;
22916;SDS011;11624;53.250;7.456;2023-04-03T11:33:51;2.72;;;1.08;;
22916;SDS011;11624;53.250;7.456;2023-04-03T11:36:26;2.90;;;1.00;;
22916;SDS011;11624;53.250;7.456;2023-04-03T11:39:14;5.68;;;1.30;;
22916;SDS011;11624;53.250;7.456;2023-04-03T11:41:48;3.35;;;1.20;;
22916;SDS011;11624;53.250;7.456;2023-04-03T11:44:30;5.47;;;1.48;;
22916;SDS011;11624;53.250;7.456;2023-04-03T11:47:03;4.32;;;0.98;;
22916;SDS011;11624;53.250;7.456;2023-04-03T11:49:56;2.95;;;1.23;;
22916;SDS011;11624;53.250;7.456;2023-04-03T11:55:41;6.05;;;1.40;;
22916;SDS011;11624;53.250;7.456;2023-04-03T11:58:12;4.35;;;1.50;;
22916;SDS011;11624;53.250;7.456;2023-04-03T12:06:49;5.72;;;1.55;;
22916;SDS011;11624;53.250;7.456;2023-04-03T12:09:27;3.50;;;1.20;;
22916;SDS011;11624;53.250;7.456;2023-04-03T12:11:59;5.78;;;1.20;;
22916;SDS011;11624;53.250;7.456;2023-04-03T12:14:48;4.00;;;1.33;;
22916;SDS011;11624;53.250;7.456;2023-04-03T12:17:20;3.80;;;1.30;;
22916;SDS011;11624;53.250;7.456;2023-04-03T12:19:52;3.65;;;1.33;;
22916;SDS011;11624;53.250;7.456;2023-04-03T12:22:22;4.00;;;1.50;;
22916;SDS011;11624;53.250;7.456;2023-04-03T12:24:51;3.13;;;1.17;;
22916;SDS011;11624;53.250;7.456;2023-04-03T12:27:25;3.70;;;1.38;;
22916;SDS011;11624;53.250;7.456;2023-04-03T12:30:12;5.15;;;1.30;;
22916;SDS011;11624;53.250;7.456;2023-04-03T12:35:40;5.32;;;1.40;;
22916;SDS011;11624;53.250;7.456;2023-04-03T12:41:34;5.35;;;1.05;;
22916;SDS011;11624;53.250;7.456;2023-04-03T12:44:09;3.22;;;1.02;;
22916;SDS011;11624;53.250;7.456;2023-04-03T12:46:54;5.60;;;1.23;;
22916;SDS011;11624;53.250;7.456;2023-04-03T12:49:26;3.92;;;1.00;;
22916;SDS011;11624;53.250;7.456;2023-04-03T12:52:03;4.70;;;0.95;;
22916;SDS011;11624;53.250;7.456;2023-04-03T12:54:35;3.58;;;1.17;;
22916;SDS011;11624;53.250;7.456;2023-04-03T12:57:12;7.65;;;1.35;;
22916;SDS011;11624;53.250;7.456;2023-04-03T12:59:44;6.78;;;1.00;;
22916;SDS011;11624;53.250;7.456;2023-04-03T13:02:17;2.58;;;1.00;;
22916;SDS011;11624;53.250;7.456;2023-04-03T13:04:50;4.43;;;1.25;;
22916;SDS011;11624;53.250;7.456;2023-04-03T13:07:23;5.43;;;1.00;;
22916;SDS011;11624;53.250;7.456;2023-04-03T13:09:55;4.97;;;1.20;;
22916;SDS011;11624;53.250;7.456;2023-04-03T13:12:26;4.95;;;1.23;;
22916;SDS011;11624;53.250;7.456;2023-04-03T13:14:58;4.38;;;1.35;;
22916;SDS011;11624;53.250;7.456;2023-04-03T13:17:30;6.53;;;1.13;;
22916;SDS011;11624;53.250;7.456;2023-04-03T13:20:10;4.95;;;1.38;;
22916;SDS011;11624;53.250;7.456;2023-04-03T13:22:43;4.57;;;1.33;;
22916;SDS011;11624;53.250;7.456;2023-04-03T13:25:17;5.32;;;1.33;;
22916;SDS011;11624;53.250;7.456;2023-04-03T13:27:48;5.60;;;1.50;;
22916;SDS011;11624;53.250;7.456;2023-04-03T13:30:25;5.30;;;1.35;;
22916;SDS011;11624;53.250;7.456;2023-04-03T13:32:56;4.35;;;1.52;;
22916;SDS011;11624;53.250;7.456;2023-04-03T13:35:28;3.78;;;1.17;;
22916;SDS011;11624;53.250;7.456;2023-04-03T13:37:59;4.22;;;1.38;;
22916;SDS011;11624;53.250;7.456;2023-04-03T13:40:28;8.52;;;1.55;;
22916;SDS011;11624;53.250;7.456;2023-04-03T13:43:18;4.20;;;1.52;;
22916;SDS011;11624;53.250;7.456;2023-04-03T13:45:55;4.82;;;1.17;;
22916;SDS011;11624;53.250;7.456;2023-04-03T13:48:48;5.43;;;1.30;;
22916;SDS011;11624;53.250;7.456;2023-04-03T13:51:19;5.60;;;1.42;;
22916;SDS011;11624;53.250;7.456;2023-04-03T13:53:51;3.28;;;1.40;;
22916;SDS011;11624;53.250;7.456;2023-04-03T13:56:22;3.60;;;1.10;;
22916;SDS011;11624;53.250;7.456;2023-04-03T13:59:05;3.90;;;1.25;;
22916;SDS011;11624;53.250;7.456;2023-04-03T14:01:49;5.10;;;1.27;;
22916;SDS011;11624;53.250;7.456;2023-04-03T14:04:21;5.55;;;1.30;;
22916;SDS011;11624;53.250;7.456;2023-04-03T14:06:50;5.80;;;1.10;;
22916;SDS011;11624;53.250;7.456;2023-04-03T14:09:19;4.38;;;1.20;;
22916;SDS011;11624;53.250;7.456;2023-04-03T14:11:49;6.50;;;1.30;;
22916;SDS011;11624;53.250;7.456;2023-04-03T14:14:22;6.43;;;1.25;;
22916;SDS011;11624;53.250;7.456;2023-04-03T14:16:53;5.63;;;1.20;;
22916;SDS011;11624;53.250;7.456;2023-04-03T14:19:25;4.05;;;1.40;;
22916;SDS011;11624;53.250;7.456;2023-04-03T14:21:56;4.18;;;1.20;;
22916;SDS011;11624;53.250;7.456;2023-04-03T14:24:25;3.90;;;1.20;;
22916;SDS011;11624;53.250;7.456;2023-04-03T14:26:54;3.65;;;1.25;;
22916;SDS011;11624;53.250;7.456;2023-04-03T14:29:24;10.23;;;1.42;;
22916;SDS011;11624;53.250;7.456;2023-04-03T14:31:52;4.38;;;1.40;;
22916;SDS011;11624;53.250;7.456;2023-04-03T14:34:39;4.18;;;1.13;;
22916;SDS011;11624;53.250;7.456;2023-04-03T14:37:10;4.15;;;1.17;;
22916;SDS011;11624;53.250;7.456;2023-04-03T14:39:40;4.03;;;1.20;;
22916;SDS011;11624;53.250;7.456;2023-04-03T14:42:11;5.60;;;1.38;;
22916;SDS011;11624;53.250;7.456;2023-04-03T14:44:42;5.25;;;1.45;;
22916;SDS011;11624;53.250;7.456;2023-04-03T14:47:11;3.40;;;1.33;;
22916;SDS011;11624;53.250;7.456;2023-04-03T14:49:56;3.53;;;1.25;;
22916;SDS011;11624;53.250;7.456;2023-04-03T14:52:25;4.47;;;1.20;;
22916;SDS011;11624;53.250;7.456;2023-04-03T14:54:56;3.60;;;1.30;;
22916;SDS011;11624;53.250;7.456;2023-04-03T14:57:25;6.20;;;1.38;;
22916;SDS011;11624;53.250;7.456;2023-04-03T14:59:57;2.80;;;1.33;;
22916;SDS011;11624;53.250;7.456;2023-04-03T15:02:28;6.43;;;1.42;;
22916;SDS011;11624;53.250;7.456;2023-04-03T15:04:58;4.75;;;1.20;;
22916;SDS011;11624;53.250;7.456;2023-04-03T15:07:27;6.40;;;1.50;;
22916;SDS011;11624;53.250;7.456;2023-04-03T15:09:57;3.70;;;1.40;;
22916;SDS011;11624;53.250;7.456;2023-04-03T15:12:25;5.32;;;1.48;;
22916;SDS011;11624;53.250;7.456;2023-04-03T15:14:53;7.55;;;1.60;;
22916;SDS011;11624;53.250;7.456;2023-04-03T15:17:30;4.40;;;1.30;;
22916;SDS011;11624;53.250;7.456;2023-04-03T15:19:58;4.20;;;1.48;;
22916;SDS011;11624;53.250;7.456;2023-04-03T15:22:26;5.65;;;1.60;;
22916;SDS011;11624;53.250;7.456;2023-04-03T15:24:54;5.65;;;1.77;;
22916;SDS011;11624;53.250;7.456;2023-04-03T15:27:22;6.60;;;1.48;;
22916;SDS011;11624;53.250;7.456;2023-04-03T15:29:50;6.10;;;1.15;;